sensor_id;sensor_type;location;lat;lon;timestamp;temperature;humidity
8105;DHT22;4095;48.942;9.104;2022-09-29T00:01:23;10.30;99.90
8105;DHT22;4095;48.942;9.104;2022-09-29T00:03:49;10.40;99.90
8105;DHT22;4095;48.942;9.104;2022-09-29T00:06:16;10.40;99.90
8105;DHT22;4095;48.942;9.104;2022-09-29T00:08:43;10.40;99.90
8105;DHT22;4095;48.942;9.104;2022-09-29T00:11:10;10.50;99.90
8105;DHT22;4095;48.942;9.104;2022-09-29T00:13:36;10.50;99.90
8105;DHT22;4095;48.942;9.104;2022-09-29T00:16:03;10.50;99.90
8105;DHT22;4095;48.942;9.104;2022-09-29T00:18:29;10.60;99.90
8105;DHT22;4095;48.942;9.104;2022-09-29T00:23:29;10.60;99.90
8105;DHT22;4095;48.942;9.104;2022-09-29T00:26:10;10.60;99.90
8105;DHT22;4095;48.942;9.104;2022-09-29T00:28:38;10.60;99.90
8105;DHT22;4095;48.942;9.104;2022-09-29T00:31:05;10.60;99.90
8105;DHT22;4095;48.942;9.104;2022-09-29T00:33:33;10.70;99.90
8105;DHT22;4095;48.942;9.104;2022-09-29T00:36:02;10.70;99.90
8105;DHT22;4095;48.942;9.104;2022-09-29T00:38:29;10.70;99.90
8105;DHT22;4095;48.942;9.104;2022-09-29T00:40:54;10.60;99.90
8105;DHT22;4095;48.942;9.104;2022-09-29T00:46:06;10.60;99.90
8105;DHT22;4095;48.942;9.104;2022-09-29T00:48:32;10.50;99.90
8105;DHT22;4095;48.942;9.104;2022-09-29T00:50:58;10.50;99.90
8105;DHT22;4095;48.942;9.104;2022-09-29T00:53:26;10.50;99.90
8105;DHT22;4095;48.942;9.104;2022-09-29T00:56:02;10.50;99.90
8105;DHT22;4095;48.942;9.104;2022-09-29T00:58:31;10.40;99.90
8105;DHT22;4095;48.942;9.104;2022-09-29T01:00:58;10.50;99.90
8105;DHT22;4095;48.942;9.104;2022-09-29T01:03:30;10.50;99.90
8105;DHT22;4095;48.942;9.104;2022-09-29T01:06:00;10.40;99.90
8105;DHT22;4095;48.942;9.104;2022-09-29T01:08:41;10.40;99.90
8105;DHT22;4095;48.942;9.104;2022-09-29T01:11:10;10.40;99.90
8105;DHT22;4095;48.942;9.104;2022-09-29T01:13:37;10.40;99.90
8105;DHT22;4095;48.942;9.104;2022-09-29T01:16:03;10.40;99.90
8105;DHT22;4095;48.942;9.104;2022-09-29T01:18:30;10.30;99.90
8105;DHT22;4095;48.942;9.104;2022-09-29T01:20:59;10.20;99.90
8105;DHT22;4095;48.942;9.104;2022-09-29T01:24:07;10.10;99.90
8105;DHT22;4095;48.942;9.104;2022-09-29T01:35:33;10.20;99.90
8105;DHT22;4095;48.942;9.104;2022-09-29T01:38:18;10.20;99.90
8105;DHT22;4095;48.942;9.104;2022-09-29T01:41:02;10.20;99.90
8105;DHT22;4095;48.942;9.104;2022-09-29T01:46:23;10.30;99.90
8105;DHT22;4095;48.942;9.104;2022-09-29T01:48:54;10.20;99.90
8105;DHT22;4095;48.942;9.104;2022-09-29T01:51:26;10.30;99.90
8105;DHT22;4095;48.942;9.104;2022-09-29T01:53:59;10.30;99.90
8105;DHT22;4095;48.942;9.104;2022-09-29T01:56:32;10.30;99.90
8105;DHT22;4095;48.942;9.104;2022-09-29T01:59:21;10.40;99.90
8105;DHT22;4095;48.942;9.104;2022-09-29T02:01:49;10.40;99.90
8105;DHT22;4095;48.942;9.104;2022-09-29T02:04:28;10.50;99.90
8105;DHT22;4095;48.942;9.104;2022-09-29T02:07:07;10.50;99.90
8105;DHT22;4095;48.942;9.104;2022-09-29T02:09:39;10.50;99.90
8105;DHT22;4095;48.942;9.104;2022-09-29T02:12:07;10.50;99.90
8105;DHT22;4095;48.942;9.104;2022-09-29T02:14:42;10.50;99.90
8105;DHT22;4095;48.942;9.104;2022-09-29T02:17:17;10.50;99.90
8105;DHT22;4095;48.942;9.104;2022-09-29T02:19:45;10.40;99.90
8105;DHT22;4095;48.942;9.104;2022-09-29T02:22:12;10.50;99.90
8105;DHT22;4095;48.942;9.104;2022-09-29T02:24:38;10.50;99.90
8105;DHT22;4095;48.942;9.104;2022-09-29T02:27:04;10.50;99.90
8105;DHT22;4095;48.942;9.104;2022-09-29T02:29:31;10.60;99.90
8105;DHT22;4095;48.942;9.104;2022-09-29T02:31:58;10.60;99.90
8105;DHT22;4095;48.942;9.104;2022-09-29T02:34:30;10.60;99.90
8105;DHT22;4095;48.942;9.104;2022-09-29T02:42:44;10.70;99.90
8105;DHT22;4095;48.942;9.104;2022-09-29T02:51:00;10.70;99.90
8105;DHT22;4095;48.942;9.104;2022-09-29T02:53:32;10.60;99.90
8105;DHT22;4095;48.942;9.104;2022-09-29T03:01:32;10.70;99.90
8105;DHT22;4095;48.942;9.104;2022-09-29T03:03:57;10.70;99.90
8105;DHT22;4095;48.942;9.104;2022-09-29T03:06:23;10.70;99.90
8105;DHT22;4095;48.942;9.104;2022-09-29T03:08:49;10.70;99.90
8105;DHT22;4095;48.942;9.104;2022-09-29T03:11:14;10.80;99.90
8105;DHT22;4095;48.942;9.104;2022-09-29T03:13:40;10.80;99.90
8105;DHT22;4095;48.942;9.104;2022-09-29T03:16:06;10.70;99.90
8105;DHT22;4095;48.942;9.104;2022-09-29T03:18:31;10.70;99.90
8105;DHT22;4095;48.942;9.104;2022-09-29T03:20:57;10.70;99.90
8105;DHT22;4095;48.942;9.104;2022-09-29T03:23:22;10.80;99.90
8105;DHT22;4095;48.942;9.104;2022-09-29T03:25:48;10.80;99.90
8105;DHT22;4095;48.942;9.104;2022-09-29T03:28:14;10.90;99.90
8105;DHT22;4095;48.942;9.104;2022-09-29T03:30:41;10.90;99.90
8105;DHT22;4095;48.942;9.104;2022-09-29T03:33:06;10.90;99.90
8105;DHT22;4095;48.942;9.104;2022-09-29T03:35:32;10.90;99.90
8105;DHT22;4095;48.942;9.104;2022-09-29T03:37:59;10.90;99.90
8105;DHT22;4095;48.942;9.104;2022-09-29T03:40:25;10.90;99.90
8105;DHT22;4095;48.942;9.104;2022-09-29T03:42:51;10.90;99.90
8105;DHT22;4095;48.942;9.104;2022-09-29T03:45:16;10.80;99.90
8105;DHT22;4095;48.942;9.104;2022-09-29T03:47:42;10.90;99.90
8105;DHT22;4095;48.942;9.104;2022-09-29T03:50:08;10.80;99.90
8105;DHT22;4095;48.942;9.104;2022-09-29T03:52:33;10.80;99.90
8105;DHT22;4095;48.942;9.104;2022-09-29T03:54:59;10.80;99.90
8105;DHT22;4095;48.942;9.104;2022-09-29T03:57:25;10.80;99.90
8105;DHT22;4095;48.942;9.104;2022-09-29T03:59:50;10.80;99.90
8105;DHT22;4095;48.942;9.104;2022-09-29T04:02:17;10.80;99.90
8105;DHT22;4095;48.942;9.104;2022-09-29T04:04:44;10.90;99.90
8105;DHT22;4095;48.942;9.104;2022-09-29T04:07:09;10.80;99.90
8105;DHT22;4095;48.942;9.104;2022-09-29T04:09:35;10.80;99.90
8105;DHT22;4095;48.942;9.104;2022-09-29T04:12:01;10.90;99.90
8105;DHT22;4095;48.942;9.104;2022-09-29T04:14:27;10.80;99.90
8105;DHT22;4095;48.942;9.104;2022-09-29T04:16:52;10.80;99.90
8105;DHT22;4095;48.942;9.104;2022-09-29T04:19:18;10.80;99.90
8105;DHT22;4095;48.942;9.104;2022-09-29T04:21:43;10.80;99.90
8105;DHT22;4095;48.942;9.104;2022-09-29T04:24:10;10.70;99.90
8105;DHT22;4095;48.942;9.104;2022-09-29T04:26:36;10.70;99.90
8105;DHT22;4095;48.942;9.104;2022-09-29T04:29:01;10.70;99.90
8105;DHT22;4095;48.942;9.104;2022-09-29T04:31:27;10.70;99.90
8105;DHT22;4095;48.942;9.104;2022-09-29T04:33:53;10.70;99.90
8105;DHT22;4095;48.942;9.104;2022-09-29T04:36:19;10.70;99.90
8105;DHT22;4095;48.942;9.104;2022-09-29T04:38:44;10.80;99.90
8105;DHT22;4095;48.942;9.104;2022-09-29T04:41:10;10.70;99.90
8105;DHT22;4095;48.942;9.104;2022-09-29T04:43:35;10.70;99.90
8105;DHT22;4095;48.942;9.104;2022-09-29T04:46:06;10.70;99.90
8105;DHT22;4095;48.942;9.104;2022-09-29T04:48:33;10.60;99.90
8105;DHT22;4095;48.942;9.104;2022-09-29T04:50:58;10.60;99.90
8105;DHT22;4095;48.942;9.104;2022-09-29T04:53:24;10.60;99.90
8105;DHT22;4095;48.942;9.104;2022-09-29T04:55:49;10.60;99.90
8105;DHT22;4095;48.942;9.104;2022-09-29T04:58:15;10.60;99.90
8105;DHT22;4095;48.942;9.104;2022-09-29T05:00:41;10.60;99.90
8105;DHT22;4095;48.942;9.104;2022-09-29T05:03:06;10.60;99.90
8105;DHT22;4095;48.942;9.104;2022-09-29T05:05:32;10.60;99.90
8105;DHT22;4095;48.942;9.104;2022-09-29T05:07:57;10.60;99.90
8105;DHT22;4095;48.942;9.104;2022-09-29T05:10:24;10.50;99.90
8105;DHT22;4095;48.942;9.104;2022-09-29T05:12:50;10.50;99.90
8105;DHT22;4095;48.942;9.104;2022-09-29T05:15:19;10.50;99.90
8105;DHT22;4095;48.942;9.104;2022-09-29T05:17:45;10.40;99.90
8105;DHT22;4095;48.942;9.104;2022-09-29T05:20:11;10.40;99.90
8105;DHT22;4095;48.942;9.104;2022-09-29T05:22:37;10.40;99.90
8105;DHT22;4095;48.942;9.104;2022-09-29T05:25:04;10.40;99.90
8105;DHT22;4095;48.942;9.104;2022-09-29T05:27:29;10.40;99.90
8105;DHT22;4095;48.942;9.104;2022-09-29T05:29:55;10.40;99.90
8105;DHT22;4095;48.942;9.104;2022-09-29T05:32:20;10.40;99.90
8105;DHT22;4095;48.942;9.104;2022-09-29T05:34:46;10.40;99.90
8105;DHT22;4095;48.942;9.104;2022-09-29T05:37:12;10.40;99.90
8105;DHT22;4095;48.942;9.104;2022-09-29T05:39:37;10.40;99.90
8105;DHT22;4095;48.942;9.104;2022-09-29T05:42:05;10.30;99.90
8105;DHT22;4095;48.942;9.104;2022-09-29T05:44:34;10.40;99.90
8105;DHT22;4095;48.942;9.104;2022-09-29T05:47:00;10.40;99.90
8105;DHT22;4095;48.942;9.104;2022-09-29T05:49:25;10.40;99.90
8105;DHT22;4095;48.942;9.104;2022-09-29T05:51:51;10.40;99.90
8105;DHT22;4095;48.942;9.104;2022-09-29T05:54:17;10.40;99.90
8105;DHT22;4095;48.942;9.104;2022-09-29T05:56:42;10.40;99.90
8105;DHT22;4095;48.942;9.104;2022-09-29T05:59:09;10.40;99.90
8105;DHT22;4095;48.942;9.104;2022-09-29T06:01:34;10.40;99.90
8105;DHT22;4095;48.942;9.104;2022-09-29T06:04:01;10.40;99.90
8105;DHT22;4095;48.942;9.104;2022-09-29T06:06:28;10.40;99.90
8105;DHT22;4095;48.942;9.104;2022-09-29T06:08:54;10.50;99.90
8105;DHT22;4095;48.942;9.104;2022-09-29T06:11:25;10.50;99.90
8105;DHT22;4095;48.942;9.104;2022-09-29T06:13:56;10.60;99.90
8105;DHT22;4095;48.942;9.104;2022-09-29T06:16:25;10.60;99.90
8105;DHT22;4095;48.942;9.104;2022-09-29T06:18:51;10.60;99.90
8105;DHT22;4095;48.942;9.104;2022-09-29T06:21:19;10.60;99.90
8105;DHT22;4095;48.942;9.104;2022-09-29T06:23:46;10.70;99.90
8105;DHT22;4095;48.942;9.104;2022-09-29T06:26:13;10.70;99.90
8105;DHT22;4095;48.942;9.104;2022-09-29T06:28:40;10.70;99.90
8105;DHT22;4095;48.942;9.104;2022-09-29T06:31:09;10.70;99.90
8105;DHT22;4095;48.942;9.104;2022-09-29T06:33:35;10.70;99.90
8105;DHT22;4095;48.942;9.104;2022-09-29T06:36:11;10.80;99.90
8105;DHT22;4095;48.942;9.104;2022-09-29T06:38:55;10.80;99.90
8105;DHT22;4095;48.942;9.104;2022-09-29T06:41:21;10.90;99.90
8105;DHT22;4095;48.942;9.104;2022-09-29T06:43:47;10.90;99.90
8105;DHT22;4095;48.942;9.104;2022-09-29T06:46:13;10.90;99.90
8105;DHT22;4095;48.942;9.104;2022-09-29T06:48:39;11.00;99.90
8105;DHT22;4095;48.942;9.104;2022-09-29T06:51:08;11.00;99.90
8105;DHT22;4095;48.942;9.104;2022-09-29T06:53:34;11.10;99.90
8105;DHT22;4095;48.942;9.104;2022-09-29T06:56:00;11.10;99.90
8105;DHT22;4095;48.942;9.104;2022-09-29T06:58:27;11.10;99.90
8105;DHT22;4095;48.942;9.104;2022-09-29T07:00:53;11.10;99.90
8105;DHT22;4095;48.942;9.104;2022-09-29T07:03:20;11.20;99.90
8105;DHT22;4095;48.942;9.104;2022-09-29T07:05:46;11.20;99.90
8105;DHT22;4095;48.942;9.104;2022-09-29T07:08:11;11.30;99.90
8105;DHT22;4095;48.942;9.104;2022-09-29T07:10:37;11.30;99.90
8105;DHT22;4095;48.942;9.104;2022-09-29T07:13:03;11.40;99.90
8105;DHT22;4095;48.942;9.104;2022-09-29T07:15:29;11.50;99.90
8105;DHT22;4095;48.942;9.104;2022-09-29T07:17:58;11.60;99.90
8105;DHT22;4095;48.942;9.104;2022-09-29T07:20:25;11.60;99.90
8105;DHT22;4095;48.942;9.104;2022-09-29T07:22:52;11.70;99.90
8105;DHT22;4095;48.942;9.104;2022-09-29T07:25:18;11.70;99.90
8105;DHT22;4095;48.942;9.104;2022-09-29T07:27:43;11.80;99.90
8105;DHT22;4095;48.942;9.104;2022-09-29T07:30:10;11.80;99.90
8105;DHT22;4095;48.942;9.104;2022-09-29T07:32:36;11.80;99.90
8105;DHT22;4095;48.942;9.104;2022-09-29T07:35:02;11.80;99.90
8105;DHT22;4095;48.942;9.104;2022-09-29T07:37:28;11.80;99.90
8105;DHT22;4095;48.942;9.104;2022-09-29T07:39:55;11.90;99.90
8105;DHT22;4095;48.942;9.104;2022-09-29T07:42:20;12.00;99.90
8105;DHT22;4095;48.942;9.104;2022-09-29T07:44:46;12.10;99.90
8105;DHT22;4095;48.942;9.104;2022-09-29T07:47:12;12.20;99.90
8105;DHT22;4095;48.942;9.104;2022-09-29T07:49:39;12.30;99.90
8105;DHT22;4095;48.942;9.104;2022-09-29T07:52:05;12.30;99.90
8105;DHT22;4095;48.942;9.104;2022-09-29T07:54:31;12.40;99.90
8105;DHT22;4095;48.942;9.104;2022-09-29T07:56:56;12.40;99.90
8105;DHT22;4095;48.942;9.104;2022-09-29T07:59:25;12.50;99.90
8105;DHT22;4095;48.942;9.104;2022-09-29T08:01:51;12.50;99.90
8105;DHT22;4095;48.942;9.104;2022-09-29T08:04:17;12.50;99.90
8105;DHT22;4095;48.942;9.104;2022-09-29T08:06:43;12.60;99.90
8105;DHT22;4095;48.942;9.104;2022-09-29T08:09:09;12.60;99.90
8105;DHT22;4095;48.942;9.104;2022-09-29T08:11:39;12.70;99.90
8105;DHT22;4095;48.942;9.104;2022-09-29T08:14:06;12.70;99.90
8105;DHT22;4095;48.942;9.104;2022-09-29T08:16:32;12.80;99.90
8105;DHT22;4095;48.942;9.104;2022-09-29T08:18:59;12.90;99.90
8105;DHT22;4095;48.942;9.104;2022-09-29T08:21:26;12.90;99.90
8105;DHT22;4095;48.942;9.104;2022-09-29T08:23:52;13.00;99.90
8105;DHT22;4095;48.942;9.104;2022-09-29T08:26:20;13.10;99.90
8105;DHT22;4095;48.942;9.104;2022-09-29T08:28:46;13.10;99.90
8105;DHT22;4095;48.942;9.104;2022-09-29T08:31:15;13.10;99.90
8105;DHT22;4095;48.942;9.104;2022-09-29T08:33:44;13.10;99.90
8105;DHT22;4095;48.942;9.104;2022-09-29T08:36:10;13.20;99.90
8105;DHT22;4095;48.942;9.104;2022-09-29T08:38:51;13.20;99.90
8105;DHT22;4095;48.942;9.104;2022-09-29T08:41:38;13.30;99.90
8105;DHT22;4095;48.942;9.104;2022-09-29T08:46:42;13.40;99.90
8105;DHT22;4095;48.942;9.104;2022-09-29T08:49:20;13.60;99.90
8105;DHT22;4095;48.942;9.104;2022-09-29T08:52:00;13.60;99.90
8105;DHT22;4095;48.942;9.104;2022-09-29T08:54:38;13.60;99.90
8105;DHT22;4095;48.942;9.104;2022-09-29T08:57:06;13.70;99.90
8105;DHT22;4095;48.942;9.104;2022-09-29T08:59:39;13.80;99.90
8105;DHT22;4095;48.942;9.104;2022-09-29T09:10:21;14.70;99.90
8105;DHT22;4095;48.942;9.104;2022-09-29T09:15:49;15.00;99.90
8105;DHT22;4095;48.942;9.104;2022-09-29T09:21:09;15.40;99.90
8105;DHT22;4095;48.942;9.104;2022-09-29T09:26:58;15.60;99.60
8105;DHT22;4095;48.942;9.104;2022-09-29T09:39:54;15.90;99.00
8105;DHT22;4095;48.942;9.104;2022-09-29T09:42:25;16.10;98.60
8105;DHT22;4095;48.942;9.104;2022-09-29T09:45:09;16.10;98.40
8105;DHT22;4095;48.942;9.104;2022-09-29T09:50:19;16.30;99.00
8105;DHT22;4095;48.942;9.104;2022-09-29T09:52:52;16.20;97.70
8105;DHT22;4095;48.942;9.104;2022-09-29T09:55:21;16.20;97.90
8105;DHT22;4095;48.942;9.104;2022-09-29T10:02:53;16.10;97.60
8105;DHT22;4095;48.942;9.104;2022-09-29T10:05:37;16.00;97.60
8105;DHT22;4095;48.942;9.104;2022-09-29T10:08:06;15.80;97.60
8105;DHT22;4095;48.942;9.104;2022-09-29T10:10:34;15.80;97.90
8105;DHT22;4095;48.942;9.104;2022-09-29T10:13:09;15.80;97.70
8105;DHT22;4095;48.942;9.104;2022-09-29T10:18:39;15.80;97.90
8105;DHT22;4095;48.942;9.104;2022-09-29T10:23:58;15.90;98.00
8105;DHT22;4095;48.942;9.104;2022-09-29T10:26:28;16.00;98.20
8105;DHT22;4095;48.942;9.104;2022-09-29T10:29:00;16.00;98.00
8105;DHT22;4095;48.942;9.104;2022-09-29T10:33:57;16.00;98.30
8105;DHT22;4095;48.942;9.104;2022-09-29T10:36:30;16.10;98.30
8105;DHT22;4095;48.942;9.104;2022-09-29T10:38:56;16.00;98.00
8105;DHT22;4095;48.942;9.104;2022-09-29T10:41:23;16.10;98.40
8105;DHT22;4095;48.942;9.104;2022-09-29T10:43:50;16.10;98.50
8105;DHT22;4095;48.942;9.104;2022-09-29T10:49:18;16.00;97.10
8105;DHT22;4095;48.942;9.104;2022-09-29T10:54:23;16.00;96.70
8105;DHT22;4095;48.942;9.104;2022-09-29T10:56:53;15.90;96.80
8105;DHT22;4095;48.942;9.104;2022-09-29T10:59:21;15.90;96.70
8105;DHT22;4095;48.942;9.104;2022-09-29T11:01:51;15.90;96.40
8105;DHT22;4095;48.942;9.104;2022-09-29T11:04:22;15.90;96.90
8105;DHT22;4095;48.942;9.104;2022-09-29T11:06:49;16.00;96.60
8105;DHT22;4095;48.942;9.104;2022-09-29T11:14:31;16.10;96.60
8105;DHT22;4095;48.942;9.104;2022-09-29T11:19:48;16.20;96.10
8105;DHT22;4095;48.942;9.104;2022-09-29T11:25:31;16.20;95.50
8105;DHT22;4095;48.942;9.104;2022-09-29T11:36:11;16.40;96.60
8105;DHT22;4095;48.942;9.104;2022-09-29T11:47:24;16.80;96.10
8105;DHT22;4095;48.942;9.104;2022-09-29T11:52:54;17.20;96.30
8105;DHT22;4095;48.942;9.104;2022-09-29T11:58:04;17.60;95.80
8105;DHT22;4095;48.942;9.104;2022-09-29T12:04:02;17.80;94.10
8105;DHT22;4095;48.942;9.104;2022-09-29T12:15:55;17.70;93.20
8105;DHT22;4095;48.942;9.104;2022-09-29T12:21:11;17.70;94.40
8105;DHT22;4095;48.942;9.104;2022-09-29T12:23:39;17.60;94.60
8105;DHT22;4095;48.942;9.104;2022-09-29T12:26:18;17.60;95.10
8105;DHT22;4095;48.942;9.104;2022-09-29T12:31:38;17.60;93.80
8105;DHT22;4095;48.942;9.104;2022-09-29T12:34:10;17.60;94.50
8105;DHT22;4095;48.942;9.104;2022-09-29T12:42:31;17.80;94.50
8105;DHT22;4095;48.942;9.104;2022-09-29T12:45:13;17.90;94.50
8105;DHT22;4095;48.942;9.104;2022-09-29T12:47:46;18.00;95.00
8105;DHT22;4095;48.942;9.104;2022-09-29T12:50:39;18.00;94.80
8105;DHT22;4095;48.942;9.104;2022-09-29T12:53:36;18.10;94.40
8105;DHT22;4095;48.942;9.104;2022-09-29T12:56:15;18.20;92.90
8105;DHT22;4095;48.942;9.104;2022-09-29T12:59:09;18.10;92.50
8105;DHT22;4095;48.942;9.104;2022-09-29T13:01:37;18.10;93.00
8105;DHT22;4095;48.942;9.104;2022-09-29T13:07:13;18.10;93.80
8105;DHT22;4095;48.942;9.104;2022-09-29T13:10:00;18.10;93.10
8105;DHT22;4095;48.942;9.104;2022-09-29T13:23:46;17.80;93.30
8105;DHT22;4095;48.942;9.104;2022-09-29T13:29:04;17.60;92.00
8105;DHT22;4095;48.942;9.104;2022-09-29T13:31:36;17.60;92.60
8105;DHT22;4095;48.942;9.104;2022-09-29T13:34:03;17.60;92.10
8105;DHT22;4095;48.942;9.104;2022-09-29T13:36:36;17.60;91.70
8105;DHT22;4095;48.942;9.104;2022-09-29T13:39:21;17.60;91.60
8105;DHT22;4095;48.942;9.104;2022-09-29T13:41:48;17.70;91.00
8105;DHT22;4095;48.942;9.104;2022-09-29T13:44:21;17.70;90.80
8105;DHT22;4095;48.942;9.104;2022-09-29T13:46:48;17.70;90.30
8105;DHT22;4095;48.942;9.104;2022-09-29T13:49:22;17.70;91.00
8105;DHT22;4095;48.942;9.104;2022-09-29T13:54:47;17.60;91.50
8105;DHT22;4095;48.942;9.104;2022-09-29T13:57:20;17.50;91.30
8105;DHT22;4095;48.942;9.104;2022-09-29T14:08:14;17.30;92.50
8105;DHT22;4095;48.942;9.104;2022-09-29T14:10:44;17.20;91.90
8105;DHT22;4095;48.942;9.104;2022-09-29T14:13:18;17.10;92.60
8105;DHT22;4095;48.942;9.104;2022-09-29T14:15:46;17.10;93.10
8105;DHT22;4095;48.942;9.104;2022-09-29T14:18:51;17.00;93.30
8105;DHT22;4095;48.942;9.104;2022-09-29T14:21:11;17.00;93.30
8105;DHT22;4095;48.942;9.104;2022-09-29T14:31:45;16.80;93.90
8105;DHT22;4095;48.942;9.104;2022-09-29T14:34:14;16.70;93.60
8105;DHT22;4095;48.942;9.104;2022-09-29T14:36:41;16.70;93.80
8105;DHT22;4095;48.942;9.104;2022-09-29T14:39:10;16.60;93.80
8105;DHT22;4095;48.942;9.104;2022-09-29T14:41:41;16.60;93.60
8105;DHT22;4095;48.942;9.104;2022-09-29T15:01:31;16.40;94.80
8105;DHT22;4095;48.942;9.104;2022-09-29T15:06:33;16.40;94.60
8105;DHT22;4095;48.942;9.104;2022-09-29T15:09:14;16.40;94.90
8105;DHT22;4095;48.942;9.104;2022-09-29T15:11:56;16.30;94.20
8105;DHT22;4095;48.942;9.104;2022-09-29T15:14:28;16.40;94.90
8105;DHT22;4095;48.942;9.104;2022-09-29T15:17:13;16.40;94.80
8105;DHT22;4095;48.942;9.104;2022-09-29T15:25:42;16.30;94.60
8105;DHT22;4095;48.942;9.104;2022-09-29T15:30:50;16.30;94.30
8105;DHT22;4095;48.942;9.104;2022-09-29T15:33:26;16.30;94.90
8105;DHT22;4095;48.942;9.104;2022-09-29T15:39:04;16.30;94.40
8105;DHT22;4095;48.942;9.104;2022-09-29T15:41:31;16.30;94.60
8105;DHT22;4095;48.942;9.104;2022-09-29T15:44:00;16.30;94.80
8105;DHT22;4095;48.942;9.104;2022-09-29T15:49:33;16.30;95.30
8105;DHT22;4095;48.942;9.104;2022-09-29T15:52:12;16.20;95.40
8105;DHT22;4095;48.942;9.104;2022-09-29T15:54:40;16.20;94.50
8105;DHT22;4095;48.942;9.104;2022-09-29T16:02:49;16.10;95.00
8105;DHT22;4095;48.942;9.104;2022-09-29T16:05:19;16.10;95.30
8105;DHT22;4095;48.942;9.104;2022-09-29T16:07:53;16.00;95.50
8105;DHT22;4095;48.942;9.104;2022-09-29T16:10:27;16.00;95.60
8105;DHT22;4095;48.942;9.104;2022-09-29T16:13:00;16.00;96.00
8105;DHT22;4095;48.942;9.104;2022-09-29T16:15:32;16.00;96.00
8105;DHT22;4095;48.942;9.104;2022-09-29T16:18:06;15.90;95.90
8105;DHT22;4095;48.942;9.104;2022-09-29T16:20:34;15.90;96.00
8105;DHT22;4095;48.942;9.104;2022-09-29T16:23:21;15.90;96.30
8105;DHT22;4095;48.942;9.104;2022-09-29T16:28:34;15.80;96.70
8105;DHT22;4095;48.942;9.104;2022-09-29T16:31:03;15.70;96.50
8105;DHT22;4095;48.942;9.104;2022-09-29T16:33:28;15.70;96.70
8105;DHT22;4095;48.942;9.104;2022-09-29T16:36:06;15.70;97.00
8105;DHT22;4095;48.942;9.104;2022-09-29T16:41:28;15.60;97.20
8105;DHT22;4095;48.942;9.104;2022-09-29T16:44:15;15.50;97.30
8105;DHT22;4095;48.942;9.104;2022-09-29T16:49:16;15.40;97.40
8105;DHT22;4095;48.942;9.104;2022-09-29T16:51:45;15.40;97.50
8105;DHT22;4095;48.942;9.104;2022-09-29T16:54:15;15.40;97.60
8105;DHT22;4095;48.942;9.104;2022-09-29T16:56:43;15.30;97.50
8105;DHT22;4095;48.942;9.104;2022-09-29T16:59:11;15.30;97.70
8105;DHT22;4095;48.942;9.104;2022-09-29T17:01:40;15.30;98.00
8105;DHT22;4095;48.942;9.104;2022-09-29T17:04:07;15.20;97.80
8105;DHT22;4095;48.942;9.104;2022-09-29T17:06:33;15.20;97.60
8105;DHT22;4095;48.942;9.104;2022-09-29T17:08:58;15.20;97.70
8105;DHT22;4095;48.942;9.104;2022-09-29T17:11:25;15.10;97.90
8105;DHT22;4095;48.942;9.104;2022-09-29T17:13:52;15.10;97.70
8105;DHT22;4095;48.942;9.104;2022-09-29T17:16:18;15.00;97.80
8105;DHT22;4095;48.942;9.104;2022-09-29T17:18:50;15.00;98.10
8105;DHT22;4095;48.942;9.104;2022-09-29T17:21:17;14.90;98.20
8105;DHT22;4095;48.942;9.104;2022-09-29T17:23:43;14.90;98.20
8105;DHT22;4095;48.942;9.104;2022-09-29T17:26:19;14.90;98.50
8105;DHT22;4095;48.942;9.104;2022-09-29T17:29:08;14.80;98.80
8105;DHT22;4095;48.942;9.104;2022-09-29T17:31:34;14.80;99.10
8105;DHT22;4095;48.942;9.104;2022-09-29T17:33:59;14.80;99.50
8105;DHT22;4095;48.942;9.104;2022-09-29T17:36:27;14.80;99.90
8105;DHT22;4095;48.942;9.104;2022-09-29T17:38:52;14.70;99.70
8105;DHT22;4095;48.942;9.104;2022-09-29T17:41:18;14.70;99.90
8105;DHT22;4095;48.942;9.104;2022-09-29T17:43:44;14.70;99.90
8105;DHT22;4095;48.942;9.104;2022-09-29T17:46:11;14.70;99.90
8105;DHT22;4095;48.942;9.104;2022-09-29T17:48:38;14.60;99.90
8105;DHT22;4095;48.942;9.104;2022-09-29T17:51:05;14.70;99.90
8105;DHT22;4095;48.942;9.104;2022-09-29T17:53:33;14.70;99.90
8105;DHT22;4095;48.942;9.104;2022-09-29T17:55:59;14.70;99.90
8105;DHT22;4095;48.942;9.104;2022-09-29T17:58:27;14.70;99.90
8105;DHT22;4095;48.942;9.104;2022-09-29T18:00:53;14.60;99.90
8105;DHT22;4095;48.942;9.104;2022-09-29T18:03:20;14.60;99.90
8105;DHT22;4095;48.942;9.104;2022-09-29T18:05:51;14.60;99.90
8105;DHT22;4095;48.942;9.104;2022-09-29T18:08:22;14.60;99.90
8105;DHT22;4095;48.942;9.104;2022-09-29T18:10:56;14.60;99.90
8105;DHT22;4095;48.942;9.104;2022-09-29T18:13:24;14.60;99.90
8105;DHT22;4095;48.942;9.104;2022-09-29T18:15:52;14.50;99.90
8105;DHT22;4095;48.942;9.104;2022-09-29T18:18:19;14.50;99.90
8105;DHT22;4095;48.942;9.104;2022-09-29T18:20:45;14.50;99.90
8105;DHT22;4095;48.942;9.104;2022-09-29T18:23:12;14.50;99.90
8105;DHT22;4095;48.942;9.104;2022-09-29T18:25:40;14.50;99.90
8105;DHT22;4095;48.942;9.104;2022-09-29T18:28:09;14.50;99.90
8105;DHT22;4095;48.942;9.104;2022-09-29T18:30:36;14.50;99.90
8105;DHT22;4095;48.942;9.104;2022-09-29T18:33:07;14.40;99.90
8105;DHT22;4095;48.942;9.104;2022-09-29T18:35:36;14.40;99.90
8105;DHT22;4095;48.942;9.104;2022-09-29T18:38:02;14.40;99.90
8105;DHT22;4095;48.942;9.104;2022-09-29T18:40:29;14.30;99.90
8105;DHT22;4095;48.942;9.104;2022-09-29T18:42:55;14.30;99.90
8105;DHT22;4095;48.942;9.104;2022-09-29T18:45:25;14.30;99.90
8105;DHT22;4095;48.942;9.104;2022-09-29T18:47:54;14.30;99.90
8105;DHT22;4095;48.942;9.104;2022-09-29T18:50:23;14.30;99.90
8105;DHT22;4095;48.942;9.104;2022-09-29T18:52:50;14.20;99.90
8105;DHT22;4095;48.942;9.104;2022-09-29T18:55:17;14.20;99.90
8105;DHT22;4095;48.942;9.104;2022-09-29T18:57:44;14.20;99.90
8105;DHT22;4095;48.942;9.104;2022-09-29T19:00:15;14.10;99.90
8105;DHT22;4095;48.942;9.104;2022-09-29T19:02:42;14.10;99.90
8105;DHT22;4095;48.942;9.104;2022-09-29T19:05:17;14.00;99.90
8105;DHT22;4095;48.942;9.104;2022-09-29T19:07:46;14.00;99.90
8105;DHT22;4095;48.942;9.104;2022-09-29T19:10:13;14.00;99.90
8105;DHT22;4095;48.942;9.104;2022-09-29T19:12:40;13.90;99.90
8105;DHT22;4095;48.942;9.104;2022-09-29T19:15:12;13.90;99.90
8105;DHT22;4095;48.942;9.104;2022-09-29T19:17:38;13.90;99.90
8105;DHT22;4095;48.942;9.104;2022-09-29T19:20:04;13.80;99.90
8105;DHT22;4095;48.942;9.104;2022-09-29T19:22:30;13.80;99.90
8105;DHT22;4095;48.942;9.104;2022-09-29T19:25:02;13.70;99.90
8105;DHT22;4095;48.942;9.104;2022-09-29T19:27:28;13.70;99.90
8105;DHT22;4095;48.942;9.104;2022-09-29T19:29:54;13.60;99.90
8105;DHT22;4095;48.942;9.104;2022-09-29T19:32:20;13.60;99.90
8105;DHT22;4095;48.942;9.104;2022-09-29T19:34:46;13.50;99.90
8105;DHT22;4095;48.942;9.104;2022-09-29T19:37:12;13.40;99.90
8105;DHT22;4095;48.942;9.104;2022-09-29T19:39:38;13.40;99.90
8105;DHT22;4095;48.942;9.104;2022-09-29T19:42:03;13.40;99.90
8105;DHT22;4095;48.942;9.104;2022-09-29T19:44:29;13.30;99.90
8105;DHT22;4095;48.942;9.104;2022-09-29T19:46:56;13.20;99.90
8105;DHT22;4095;48.942;9.104;2022-09-29T19:49:24;13.20;99.90
8105;DHT22;4095;48.942;9.104;2022-09-29T19:51:50;13.20;99.90
8105;DHT22;4095;48.942;9.104;2022-09-29T19:54:22;13.20;99.90
8105;DHT22;4095;48.942;9.104;2022-09-29T19:56:56;13.10;99.90
8105;DHT22;4095;48.942;9.104;2022-09-29T19:59:26;13.10;99.90
8105;DHT22;4095;48.942;9.104;2022-09-29T20:01:54;13.10;99.90
8105;DHT22;4095;48.942;9.104;2022-09-29T20:04:22;13.00;99.90